Flight Track Log - Related Links

Times and Time Zones

All times are in EDT time to prevent confusion due to time zone crossing. See the UAL4462 flight status page for this flight to view local times or setup timezone preferences in your user account.

Time Position Orientation Groundspeed Altitude Reporting Facility
EDT Latitude Longitude Course Direction KTS MPH feet Rate Location/Type
Sun 12:50:00 PM 40.7333 -73.8000 270° West 221 254 3,700  Level New York TRACON
Sun 12:51:00 PM 40.7833 -73.8000 360° North 242 278 6,600 2,678 Climbing New York TRACON
Sun 12:52:01 PM 40.8333 -73.8833 308° West 270 311 9,100 2,132 Climbing New York TRACON
Sun 12:53:01 PM 40.8500 -73.9833 282° West 293 337 10,900 1,600 Climbing New York TRACON
Sun 12:54:00 PM 40.8437 -74.5437 275° West  Level FlightAware Approximate
Sun 12:54:01 PM 40.8667 -74.1000 281° West 343 395 12,300  Level New York TRACON
Sun 12:55:00 PM 40.8500 -74.6593 270° West  Level FlightAware Approximate
Sun 12:55:01 PM 40.8667 -74.2333 270° West 367 422 14,100  Level New York TRACON
Sun 12:56:01 PM 40.8833 -74.3667 279° West 362 417 16,000 1,450 Climbing New York TRACON
Sun 12:57:01 PM 40.8833 -74.5000 270° West 368 423 17,000 420 Climbing New York TRACON
Sun 12:58:24 PM 40.8967 -74.6883 275° West 398 458 17,000  Level New York Center
Sun 12:59:24 PM 40.9028 -74.8122 274° West 398 458 17,000 50 Level New York Center
Sun 01:00:24 PM 40.9100 -74.9692 274° West 393 452 17,100 650 Climbing New York Center
Sun 01:01:24 PM 40.9172 -75.1125 274° West 393 452 18,300 1,500 Climbing New York Center
Sun 01:02:24 PM 40.8978 -75.2458 259° West 370 426 20,100 1,800 Climbing New York Center
Sun 01:03:24 PM 40.8742 -75.3706 256° West 364 419 21,900 1,500 Climbing New York Center
Sun 01:04:24 PM 40.8464 -75.4892 253° West 354 407 23,100 1,050 Climbing New York Center
Sun 01:05:24 PM 40.8194 -75.5944 251° West 345 397 24,000 450 Climbing New York Center
Sun 01:06:24 PM 40.7911 -75.7239 254° West 350 403 24,000  Level New York Center
Sun 01:07:24 PM 40.7953 -75.8694 272° West 380 437 24,000 100 Level New York Center
Sun 01:08:24 PM 40.8139 -76.0189 279° West 394 453 24,200 650 Climbing New York Center
Sun 01:09:24 PM 40.8342 -76.1686 280° West 409 471 25,300 1,250 Climbing New York Center
Sun 01:10:24 PM 40.8544 -76.3156 280° West 414 476 26,700 1,450 Climbing New York Center
Sun 01:11:24 PM 40.8706 -76.4569 279° West 409 471 28,200 1,500 Climbing New York Center
Sun 01:12:24 PM 40.8892 -76.5903 281° West 389 448 29,700 1,450 Climbing New York Center
Sun 01:13:24 PM 40.9056 -76.7236 279° West 383 441 31,100 1,150 Climbing New York Center
Sun 01:14:24 PM 40.9217 -76.8567 279° West 372 428 32,000 450 Climbing New York Center
Sun 01:15:24 PM 40.9394 -76.9931 280° West 372 428 32,000  Level New York Center
Sun 01:16:24 PM 40.9569 -77.1375 279° West 384 442 32,000  Level New York Center
Sun 01:18:29 PM 40.9956 -77.4411 280° West 423 487 32,000  Level Cleveland Center
Sun 01:19:29 PM 41.0117 -77.5836 279° West 407 468 32,000  Level Cleveland Center
Sun 01:20:29 PM 41.0281 -77.7289 279° West 407 468 32,000  Level Cleveland Center
Sun 01:21:29 PM 41.0439 -77.8711 278° West 400 460 32,000  Level Cleveland Center
Sun 01:22:29 PM 41.0597 -78.0139 278° West 400 460 32,000  Level Cleveland Center
Sun 01:23:29 PM 41.0775 -78.1564 279° West 400 460 32,000  Level Cleveland Center
Sun 01:24:29 PM 41.0972 -78.3044 280° West 410 472 32,000  Level Cleveland Center
Sun 01:25:29 PM 41.1125 -78.4500 278° West 405 466 32,000  Level Cleveland Center
Sun 01:26:29 PM 41.1278 -78.5956 278° West 405 466 32,000  Level Cleveland Center
Sun 01:27:29 PM 41.1425 -78.7414 278° West 405 466 32,000  Level Cleveland Center
Sun 01:28:29 PM 41.1594 -78.8869 279° West 405 466 32,000 -100 Level Cleveland Center
Sun 01:29:29 PM 41.1742 -79.0494 277° West 405 466 31,800 -800 Descending Cleveland Center
Sun 01:30:29 PM 41.1886 -79.1981 277° West 405 466 30,400 -1,400 Descending Cleveland Center
Sun 01:31:29 PM 41.2047 -79.3331 279° West 410 472 29,000 -1,438 Descending Cleveland Center
Sun 01:32:30 PM 41.2189 -79.4872 277° West 410 472 27,500 -1,550 Descending Cleveland Center
Sun 01:33:29 PM 41.2350 -79.6581 277° West 421 484 25,900 -1,563 Descending Cleveland Center
Sun 01:34:29 PM 41.2508 -79.8153 278° West 428 493 24,400 -950 Descending Cleveland Center
Sun 01:35:29 PM 41.2642 -79.9561 277° West 428 493 24,000 -200 Descending Cleveland Center
Sun 01:36:29 PM 41.2794 -80.1078 278° West 423 487 24,000  Level Cleveland Center
Sun 01:37:29 PM 41.2944 -80.2569 278° West 423 487 24,000 -100 Level Cleveland Center
Sun 01:38:29 PM 41.3094 -80.4283 277° West 423 487 23,800 -1,550 Descending Cleveland Center
Sun 01:39:29 PM 41.3222 -80.5831 276° West 423 487 20,900 -2,900 Descending Cleveland Center
Sun 01:40:29 PM 41.3450 -80.7214 282° West 404 465 18,000 -1,950 Descending Cleveland Center
Sun 01:41:29 PM 41.3969 -80.8544 298° West 391 450 17,000 -729 Descending Cleveland Center
Sun 01:42:16 PM 41.4342 -80.9514 297° West 400 460 16,700 -944 Descending Cleveland Center
Sun 01:42:58 PM 41.4628 -81.0458 292° West 397 457 15,600 -1,703 Descending Cleveland Center
Sun 01:43:30 PM 41.4689 -81.1208 276° West 396 456 14,600 -1,881 Descending Cleveland Center
Sun 01:44:05 PM 41.4642 -81.2039 266° West 363 418 13,500 -1,733 Descending Cleveland Center
Sun 01:45:00 PM 41.4614 -81.3286 268° West 363 418 12,000 -1,414 Descending Cleveland Center
Sun 01:46:25 PM 41.4558 -81.5114 268° West 359 413 10,200 -926 Descending Cleveland Center
Sun 01:47:29 PM 41.4425 -81.6219 261° West 316 364 9,700 -1,052 Descending Cleveland Center
Sun 01:48:02 PM 41.4317 -81.6714 254° West 259 298 8,500 -1,851 Descending Cleveland Center
Sun 01:49:03 PM 41.3850 -81.7483 231° Southwest 261 300 6,800 -1,922 Descending Cleveland Center
Sun 01:50:10 PM 41.3319 -81.8303 229° Southwest 264 304 4,400 -1,417 Descending Cleveland Center
Sun 01:51:10 PM 41.3042 -81.8961 241° Southwest 184 212 3,800 -984 Descending Cleveland Center
Sun 01:52:18 PM 41.3478 -81.9136 343° North 155 178 2,300 -1,119 Descending Cleveland Center
Sun 01:53:24 PM 41.3875 -81.8978 17° North 156 180 1,300 -909 Descending Cleveland Center

Login

Don't have an account? Register now (free) for customized features, flight alerts, and more!